Burton, Illinois
Current Conditions -  °F | °C
As of 6:54 PM on Tuesday 21 Oct 2014 (Local Time) from KUIN Reporting Station
Clear Clear  
Wind Chill: 13°   Ceiling: Unl
Heat Index: 13°   Visibility: 10mi
Dew Point:   Wind: 5mph
Humidity: 55%   Direction: 60°ENE
Pressure: 30.16"   Gusts: NA
Location:  39.9317°N, 91.2953°W
Report Text: KUIN 212354Z AUTO 06004KT 10SM CLR 13/04 A3016 RMK AO2 SLP213 T01280039 10178 20128 53008
Loading
Personal Weather Stations






























Interactive Weather Map
Tropical Storm Tracking
New forecast layout! Learn more

10-Day Weather Forecast

Advertisements
Track Severe Weather on mobile